sensor_id;sensor_type;location;lat;lon;timestamp;pressure;altitude;pressure_sealevel;temperature;humidity
83095;BME280;72967;43.674;6.976;2023-12-04T00:00:24;97107.06;;;6.06;53.93
83095;BME280;72967;43.674;6.976;2023-12-04T00:02:49;97121.34;;;6.25;53.83
83095;BME280;72967;43.674;6.976;2023-12-04T00:05:15;97132.22;;;6.16;53.20
83095;BME280;72967;43.674;6.976;2023-12-04T00:07:40;97116.56;;;6.30;50.24
83095;BME280;72967;43.674;6.976;2023-12-04T00:10:06;97130.84;;;6.50;51.12
83095;BME280;72967;43.674;6.976;2023-12-04T00:12:32;97129.91;;;6.54;51.40
83095;BME280;72967;43.674;6.976;2023-12-04T00:14:57;97103.56;;;6.58;48.19
83095;BME280;72967;43.674;6.976;2023-12-04T00:17:23;97126.84;;;6.78;49.39
83095;BME280;72967;43.674;6.976;2023-12-04T00:19:48;97123.47;;;6.81;48.33
83095;BME280;72967;43.674;6.976;2023-12-04T00:22:14;97062.56;;;6.27;47.61
83095;BME280;72967;43.674;6.976;2023-12-04T00:24:39;97117.91;;;6.95;46.74
83095;BME280;72967;43.674;6.976;2023-12-04T00:27:05;97108.69;;;6.82;47.66
83095;BME280;72967;43.674;6.976;2023-12-04T00:29:30;97103.38;;;6.77;48.20
83095;BME280;72967;43.674;6.976;2023-12-04T00:31:55;97113.75;;;6.66;50.60
83095;BME280;72967;43.674;6.976;2023-12-04T00:34:22;97114.22;;;6.68;49.39
83095;BME280;72967;43.674;6.976;2023-12-04T00:36:47;97129.09;;;6.54;49.07
83095;BME280;72967;43.674;6.976;2023-12-04T00:39:13;97122.25;;;6.43;50.90
83095;BME280;72967;43.674;6.976;2023-12-04T00:41:38;97116.19;;;6.46;50.47
83095;BME280;72967;43.674;6.976;2023-12-04T00:44:04;97117.19;;;6.50;49.35
83095;BME280;72967;43.674;6.976;2023-12-04T00:46:29;97113.03;;;6.30;51.67
83095;BME280;72967;43.674;6.976;2023-12-04T00:48:55;97094.56;;;6.27;50.28
83095;BME280;72967;43.674;6.976;2023-12-04T00:51:20;97091.13;;;6.21;51.04
83095;BME280;72967;43.674;6.976;2023-12-04T00:53:45;97093.25;;;6.24;50.81
83095;BME280;72967;43.674;6.976;2023-12-04T00:56:11;97090.25;;;6.12;50.84
83095;BME280;72967;43.674;6.976;2023-12-04T00:58:36;97097.63;;;6.34;50.36
83095;BME280;72967;43.674;6.976;2023-12-04T01:01:02;97100.75;;;6.41;48.75
83095;BME280;72967;43.674;6.976;2023-12-04T01:03:27;97098.94;;;6.36;50.04
83095;BME280;72967;43.674;6.976;2023-12-04T01:05:53;97022.44;;;5.83;50.00
83095;BME280;72967;43.674;6.976;2023-12-04T01:08:18;97077.34;;;6.04;50.01
83095;BME280;72967;43.674;6.976;2023-12-04T01:10:44;97097.50;;;6.17;50.27
83095;BME280;72967;43.674;6.976;2023-12-04T01:13:09;97094.16;;;5.97;52.36
83095;BME280;72967;43.674;6.976;2023-12-04T01:15:35;97095.94;;;6.02;51.41
83095;BME280;72967;43.674;6.976;2023-12-04T01:18:01;97095.41;;;6.14;50.11
83095;BME280;72967;43.674;6.976;2023-12-04T01:20:27;97088.97;;;6.10;50.99
83095;BME280;72967;43.674;6.976;2023-12-04T01:22:52;97085.69;;;6.21;47.55
83095;BME280;72967;43.674;6.976;2023-12-04T01:25:18;97087.28;;;6.22;48.68
83095;BME280;72967;43.674;6.976;2023-12-04T01:27:44;97105.22;;;6.37;48.25
83095;BME280;72967;43.674;6.976;2023-12-04T01:30:10;97098.63;;;6.38;47.11
83095;BME280;72967;43.674;6.976;2023-12-04T01:32:35;97099.81;;;6.46;47.73
83095;BME280;72967;43.674;6.976;2023-12-04T01:35:02;97105.16;;;6.51;47.49
83095;BME280;72967;43.674;6.976;2023-12-04T01:37:27;97083.00;;;6.30;47.83
83095;BME280;72967;43.674;6.976;2023-12-04T01:39:53;97112.56;;;6.59;46.48
83095;BME280;72967;43.674;6.976;2023-12-04T01:42:18;97098.09;;;6.58;47.10
83095;BME280;72967;43.674;6.976;2023-12-04T01:44:44;97102.41;;;6.51;47.79
83095;BME280;72967;43.674;6.976;2023-12-04T01:47:10;97084.53;;;6.45;46.85
83095;BME280;72967;43.674;6.976;2023-12-04T01:49:36;97094.03;;;6.47;47.99
83095;BME280;72967;43.674;6.976;2023-12-04T01:52:02;97097.34;;;6.35;48.84
83095;BME280;72967;43.674;6.976;2023-12-04T01:54:28;97093.38;;;6.42;48.53
83095;BME280;72967;43.674;6.976;2023-12-04T01:56:54;97092.25;;;6.20;49.82
83095;BME280;72967;43.674;6.976;2023-12-04T01:59:20;97073.75;;;6.17;48.90
83095;BME280;72967;43.674;6.976;2023-12-04T02:01:46;97097.28;;;6.27;47.61
83095;BME280;72967;43.674;6.976;2023-12-04T02:04:12;97088.22;;;6.40;48.49
83095;BME280;72967;43.674;6.976;2023-12-04T02:06:40;97086.97;;;6.46;47.40
83095;BME280;72967;43.674;6.976;2023-12-04T02:09:05;97071.94;;;6.35;47.27
83095;BME280;72967;43.674;6.976;2023-12-04T02:11:32;97086.41;;;6.58;47.04
83095;BME280;72967;43.674;6.976;2023-12-04T02:13:57;97098.09;;;6.58;47.19
83095;BME280;72967;43.674;6.976;2023-12-04T02:16:26;97086.03;;;6.51;47.37
83095;BME280;72967;43.674;6.976;2023-12-04T02:18:54;97093.91;;;6.52;47.87
83095;BME280;72967;43.674;6.976;2023-12-04T02:21:19;97091.88;;;6.58;46.77
83095;BME280;72967;43.674;6.976;2023-12-04T02:23:49;97089.56;;;6.51;47.62
83095;BME280;72967;43.674;6.976;2023-12-04T02:26:16;97082.19;;;6.52;46.74
83095;BME280;72967;43.674;6.976;2023-12-04T02:28:47;97083.72;;;6.66;47.57
83095;BME280;72967;43.674;6.976;2023-12-04T02:31:16;97074.72;;;6.74;45.86
83095;BME280;72967;43.674;6.976;2023-12-04T02:33:43;97066.88;;;6.73;45.73
83095;BME280;72967;43.674;6.976;2023-12-04T02:36:10;97066.53;;;6.74;45.35
83095;BME280;72967;43.674;6.976;2023-12-04T02:38:37;97077.53;;;6.83;45.46
83095;BME280;72967;43.674;6.976;2023-12-04T02:41:03;97062.53;;;6.72;46.87
83095;BME280;72967;43.674;6.976;2023-12-04T02:43:29;97077.69;;;6.56;46.80
83095;BME280;72967;43.674;6.976;2023-12-04T02:45:54;97076.47;;;6.62;47.85
83095;BME280;72967;43.674;6.976;2023-12-04T02:48:20;97066.34;;;6.62;47.76
83095;BME280;72967;43.674;6.976;2023-12-04T02:50:45;97076.75;;;6.60;47.91
83095;BME280;72967;43.674;6.976;2023-12-04T02:53:10;97068.94;;;6.67;47.70
83095;BME280;72967;43.674;6.976;2023-12-04T02:55:36;97065.53;;;6.62;48.07
83095;BME280;72967;43.674;6.976;2023-12-04T02:58:01;97054.38;;;6.50;47.59
83095;BME280;72967;43.674;6.976;2023-12-04T03:00:27;97060.28;;;6.74;47.04
83095;BME280;72967;43.674;6.976;2023-12-04T03:02:52;97050.28;;;6.69;47.84
83095;BME280;72967;43.674;6.976;2023-12-04T03:05:19;97040.84;;;6.75;47.22
83095;BME280;72967;43.674;6.976;2023-12-04T03:07:44;97044.22;;;6.72;48.08
83095;BME280;72967;43.674;6.976;2023-12-04T03:10:10;97045.03;;;6.73;47.94
83095;BME280;72967;43.674;6.976;2023-12-04T03:12:36;97053.88;;;6.78;47.98
83095;BME280;72967;43.674;6.976;2023-12-04T03:15:02;97048.66;;;6.68;48.13
83095;BME280;72967;43.674;6.976;2023-12-04T03:17:27;97061.06;;;6.74;48.17
83095;BME280;72967;43.674;6.976;2023-12-04T03:19:53;97057.53;;;6.74;47.75
83095;BME280;72967;43.674;6.976;2023-12-04T03:22:18;97062.91;;;6.88;47.59
83095;BME280;72967;43.674;6.976;2023-12-04T03:24:44;97056.47;;;6.83;48.08
83095;BME280;72967;43.674;6.976;2023-12-04T03:27:09;97051.41;;;6.68;47.69
83095;BME280;72967;43.674;6.976;2023-12-04T03:29:34;97059.25;;;7.01;47.95
83095;BME280;72967;43.674;6.976;2023-12-04T03:32:00;97057.69;;;7.08;47.08
83095;BME280;72967;43.674;6.976;2023-12-04T03:34:25;97049.00;;;7.06;47.55
83095;BME280;72967;43.674;6.976;2023-12-04T03:36:51;97050.47;;;7.12;47.35
83095;BME280;72967;43.674;6.976;2023-12-04T03:39:16;97041.59;;;7.07;47.01
83095;BME280;72967;43.674;6.976;2023-12-04T03:41:41;97055.66;;;7.31;46.56
83095;BME280;72967;43.674;6.976;2023-12-04T03:44:07;97058.53;;;7.17;46.79
83095;BME280;72967;43.674;6.976;2023-12-04T03:46:32;97042.28;;;7.21;46.83
83095;BME280;72967;43.674;6.976;2023-12-04T03:48:59;97040.84;;;7.23;47.42
83095;BME280;72967;43.674;6.976;2023-12-04T03:51:24;97044.06;;;7.25;47.41
83095;BME280;72967;43.674;6.976;2023-12-04T03:53:50;97036.72;;;6.95;46.71
83095;BME280;72967;43.674;6.976;2023-12-04T03:56:15;97012.91;;;6.78;47.49
83095;BME280;72967;43.674;6.976;2023-12-04T03:58:40;96998.53;;;6.64;48.43
83095;BME280;72967;43.674;6.976;2023-12-04T04:01:06;96949.06;;;6.26;48.61
83095;BME280;72967;43.674;6.976;2023-12-04T04:03:31;96987.44;;;6.61;48.15
83095;BME280;72967;43.674;6.976;2023-12-04T04:05:57;96981.28;;;6.47;48.75
83095;BME280;72967;43.674;6.976;2023-12-04T04:08:22;96993.88;;;6.65;48.81
83095;BME280;72967;43.674;6.976;2023-12-04T04:10:48;96994.16;;;6.55;48.51
83095;BME280;72967;43.674;6.976;2023-12-04T04:13:13;97018.53;;;6.82;48.78
83095;BME280;72967;43.674;6.976;2023-12-04T04:15:39;97018.50;;;6.73;48.76
83095;BME280;72967;43.674;6.976;2023-12-04T04:18:04;97013.63;;;6.62;48.30
83095;BME280;72967;43.674;6.976;2023-12-04T04:20:29;97011.22;;;6.69;48.15
83095;BME280;72967;43.674;6.976;2023-12-04T04:22:55;97020.47;;;6.90;47.62
83095;BME280;72967;43.674;6.976;2023-12-04T04:25:20;97013.09;;;6.91;47.84
83095;BME280;72967;43.674;6.976;2023-12-04T04:27:48;97008.06;;;6.84;47.24
83095;BME280;72967;43.674;6.976;2023-12-04T04:30:13;97005.25;;;6.98;47.13
83095;BME280;72967;43.674;6.976;2023-12-04T04:32:39;97023.13;;;7.12;46.62
83095;BME280;72967;43.674;6.976;2023-12-04T04:35:04;97023.88;;;6.96;47.45
83095;BME280;72967;43.674;6.976;2023-12-04T04:37:30;97026.97;;;7.11;47.06
83095;BME280;72967;43.674;6.976;2023-12-04T04:39:55;97013.13;;;6.99;47.58
83095;BME280;72967;43.674;6.976;2023-12-04T04:42:22;96994.28;;;6.89;47.75
83095;BME280;72967;43.674;6.976;2023-12-04T04:44:48;97000.94;;;7.14;46.95
83095;BME280;72967;43.674;6.976;2023-12-04T04:47:13;97009.53;;;6.90;47.43
83095;BME280;72967;43.674;6.976;2023-12-04T04:49:38;97021.81;;;7.10;47.77
83095;BME280;72967;43.674;6.976;2023-12-04T04:52:04;97011.03;;;7.05;47.45
83095;BME280;72967;43.674;6.976;2023-12-04T04:54:32;97001.19;;;6.95;46.95
83095;BME280;72967;43.674;6.976;2023-12-04T04:56:58;97006.06;;;6.98;46.76
83095;BME280;72967;43.674;6.976;2023-12-04T04:59:23;97010.56;;;7.11;47.02
83095;BME280;72967;43.674;6.976;2023-12-04T05:01:49;96989.66;;;7.07;46.21
83095;BME280;72967;43.674;6.976;2023-12-04T05:04:14;96995.34;;;7.19;45.80
83095;BME280;72967;43.674;6.976;2023-12-04T05:06:40;96993.59;;;7.40;45.17
83095;BME280;72967;43.674;6.976;2023-12-04T05:09:05;96982.31;;;7.33;45.54
83095;BME280;72967;43.674;6.976;2023-12-04T05:11:31;97000.47;;;7.20;45.65
83095;BME280;72967;43.674;6.976;2023-12-04T05:13:56;97009.81;;;7.19;45.76
83095;BME280;72967;43.674;6.976;2023-12-04T05:16:22;97022.53;;;7.24;46.49
83095;BME280;72967;43.674;6.976;2023-12-04T05:18:47;97008.03;;;7.15;46.28
83095;BME280;72967;43.674;6.976;2023-12-04T05:21:12;97024.75;;;7.31;45.73
83095;BME280;72967;43.674;6.976;2023-12-04T05:23:38;97021.09;;;7.44;45.29
83095;BME280;72967;43.674;6.976;2023-12-04T05:26:05;96997.91;;;7.24;45.98
83095;BME280;72967;43.674;6.976;2023-12-04T05:28:30;97011.13;;;7.39;45.83
83095;BME280;72967;43.674;6.976;2023-12-04T05:30:56;97001.78;;;7.32;45.62
83095;BME280;72967;43.674;6.976;2023-12-04T05:33:21;97006.47;;;7.48;45.52
83095;BME280;72967;43.674;6.976;2023-12-04T05:35:50;96988.59;;;7.42;45.31
83095;BME280;72967;43.674;6.976;2023-12-04T05:38:18;96945.16;;;7.15;45.86
83095;BME280;72967;43.674;6.976;2023-12-04T05:40:44;96964.13;;;7.20;46.52
83095;BME280;72967;43.674;6.976;2023-12-04T05:43:09;96967.34;;;7.13;46.89
83095;BME280;72967;43.674;6.976;2023-12-04T05:45:35;96986.28;;;7.10;46.75
83095;BME280;72967;43.674;6.976;2023-12-04T05:48:00;96972.75;;;6.96;47.11
83095;BME280;72967;43.674;6.976;2023-12-04T05:50:26;96999.44;;;6.91;47.95
83095;BME280;72967;43.674;6.976;2023-12-04T05:52:51;97005.25;;;7.06;47.05
83095;BME280;72967;43.674;6.976;2023-12-04T05:55:16;96994.56;;;6.79;47.87
83095;BME280;72967;43.674;6.976;2023-12-04T05:57:43;97013.44;;;6.98;48.02
83095;BME280;72967;43.674;6.976;2023-12-04T06:00:09;96982.72;;;6.92;47.38
83095;BME280;72967;43.674;6.976;2023-12-04T06:02:44;97007.88;;;7.20;47.64
83095;BME280;72967;43.674;6.976;2023-12-04T06:05:10;97018.38;;;7.35;47.61
83095;BME280;72967;43.674;6.976;2023-12-04T06:07:36;97000.81;;;7.28;47.78
83095;BME280;72967;43.674;6.976;2023-12-04T06:10:02;97018.31;;;7.26;48.58
83095;BME280;72967;43.674;6.976;2023-12-04T06:12:30;97002.88;;;7.31;48.26
83095;BME280;72967;43.674;6.976;2023-12-04T06:14:55;97016.09;;;7.37;48.09
83095;BME280;72967;43.674;6.976;2023-12-04T06:17:21;97009.66;;;7.33;48.07
83095;BME280;72967;43.674;6.976;2023-12-04T06:19:46;97002.59;;;7.49;49.41
83095;BME280;72967;43.674;6.976;2023-12-04T06:22:12;96989.88;;;7.62;49.31
83095;BME280;72967;43.674;6.976;2023-12-04T06:24:38;96953.72;;;7.56;49.02
83095;BME280;72967;43.674;6.976;2023-12-04T06:27:04;96967.06;;;7.66;49.43
83095;BME280;72967;43.674;6.976;2023-12-04T06:29:31;96981.84;;;7.74;48.81
83095;BME280;72967;43.674;6.976;2023-12-04T06:31:58;96993.91;;;7.73;48.57
83095;BME280;72967;43.674;6.976;2023-12-04T06:34:23;96990.88;;;7.66;48.59
83095;BME280;72967;43.674;6.976;2023-12-04T06:36:49;97016.94;;;7.72;49.27
83095;BME280;72967;43.674;6.976;2023-12-04T06:39:16;97018.22;;;7.66;49.39
83095;BME280;72967;43.674;6.976;2023-12-04T06:41:42;97002.94;;;7.56;50.53
83095;BME280;72967;43.674;6.976;2023-12-04T06:44:08;96990.38;;;7.64;50.68
83095;BME280;72967;43.674;6.976;2023-12-04T06:46:37;97002.78;;;7.87;50.41
83095;BME280;72967;43.674;6.976;2023-12-04T06:49:04;97012.09;;;7.78;50.40
83095;BME280;72967;43.674;6.976;2023-12-04T06:51:31;96999.88;;;7.84;50.53
83095;BME280;72967;43.674;6.976;2023-12-04T06:53:57;96996.19;;;7.71;50.63
83095;BME280;72967;43.674;6.976;2023-12-04T06:56:23;96977.50;;;7.47;50.14
83095;BME280;72967;43.674;6.976;2023-12-04T06:58:48;96985.53;;;7.35;50.30
83095;BME280;72967;43.674;6.976;2023-12-04T07:01:13;96988.44;;;7.30;51.13
83095;BME280;72967;43.674;6.976;2023-12-04T07:03:39;96972.16;;;7.16;51.42
83095;BME280;72967;43.674;6.976;2023-12-04T07:06:05;96975.22;;;7.23;52.76
83095;BME280;72967;43.674;6.976;2023-12-04T07:08:30;97002.72;;;7.27;52.76
83095;BME280;72967;43.674;6.976;2023-12-04T07:10:56;96988.09;;;7.32;52.49
83095;BME280;72967;43.674;6.976;2023-12-04T07:13:21;97013.06;;;7.64;52.75
83095;BME280;72967;43.674;6.976;2023-12-04T07:15:46;97012.75;;;7.57;53.20
83095;BME280;72967;43.674;6.976;2023-12-04T07:18:12;97020.97;;;7.75;52.96
83095;BME280;72967;43.674;6.976;2023-12-04T07:20:37;97021.63;;;7.72;52.66
83095;BME280;72967;43.674;6.976;2023-12-04T07:23:03;97008.22;;;7.53;53.55
83095;BME280;72967;43.674;6.976;2023-12-04T07:25:28;97005.84;;;7.60;53.77
83095;BME280;72967;43.674;6.976;2023-12-04T07:27:54;96989.56;;;7.63;53.91
83095;BME280;72967;43.674;6.976;2023-12-04T07:30:19;96996.81;;;7.59;53.25
83095;BME280;72967;43.674;6.976;2023-12-04T07:32:46;97007.41;;;7.52;53.93
83095;BME280;72967;43.674;6.976;2023-12-04T07:35:11;96995.22;;;7.76;53.39
83095;BME280;72967;43.674;6.976;2023-12-04T07:37:37;96984.28;;;7.76;53.95
83095;BME280;72967;43.674;6.976;2023-12-04T07:40:03;96989.75;;;7.76;54.42
83095;BME280;72967;43.674;6.976;2023-12-04T07:42:31;96970.25;;;7.68;53.91
83095;BME280;72967;43.674;6.976;2023-12-04T07:44:56;96978.78;;;7.76;54.17
83095;BME280;72967;43.674;6.976;2023-12-04T07:47:22;96972.53;;;7.66;54.26
83095;BME280;72967;43.674;6.976;2023-12-04T07:49:48;96975.25;;;7.66;54.51
83095;BME280;72967;43.674;6.976;2023-12-04T07:52:14;96974.44;;;7.75;54.23
83095;BME280;72967;43.674;6.976;2023-12-04T07:54:39;96979.28;;;7.60;54.33
83095;BME280;72967;43.674;6.976;2023-12-04T07:57:05;96974.13;;;7.67;54.57
83095;BME280;72967;43.674;6.976;2023-12-04T07:59:30;96975.56;;;7.74;54.09
83095;BME280;72967;43.674;6.976;2023-12-04T08:01:56;96964.78;;;7.68;54.39
83095;BME280;72967;43.674;6.976;2023-12-04T08:04:21;96973.31;;;7.67;53.92
83095;BME280;72967;43.674;6.976;2023-12-04T08:06:46;96986.50;;;7.74;53.87
83095;BME280;72967;43.674;6.976;2023-12-04T08:09:12;96986.66;;;7.94;53.52
83095;BME280;72967;43.674;6.976;2023-12-04T08:11:37;96967.34;;;7.74;53.50
83095;BME280;72967;43.674;6.976;2023-12-04T08:14:03;96999.38;;;7.90;54.13
83095;BME280;72967;43.674;6.976;2023-12-04T08:16:29;97002.44;;;7.97;53.86
83095;BME280;72967;43.674;6.976;2023-12-04T08:18:55;97006.94;;;8.02;52.99
83095;BME280;72967;43.674;6.976;2023-12-04T08:21:20;96982.63;;;7.83;53.29
83095;BME280;72967;43.674;6.976;2023-12-04T08:23:46;96965.56;;;7.78;53.74
83095;BME280;72967;43.674;6.976;2023-12-04T08:26:11;96996.63;;;7.99;53.53
83095;BME280;72967;43.674;6.976;2023-12-04T08:28:37;97010.97;;;8.04;53.20
83095;BME280;72967;43.674;6.976;2023-12-04T08:31:07;96997.13;;;7.92;54.00
83095;BME280;72967;43.674;6.976;2023-12-04T08:33:33;96979.09;;;7.74;54.99
83095;BME280;72967;43.674;6.976;2023-12-04T08:36:00;96980.25;;;7.82;55.76
83095;BME280;72967;43.674;6.976;2023-12-04T08:38:25;96974.75;;;7.73;57.91
83095;BME280;72967;43.674;6.976;2023-12-04T08:40:51;96993.44;;;7.80;56.46
83095;BME280;72967;43.674;6.976;2023-12-04T08:43:16;96997.78;;;7.81;58.72
83095;BME280;72967;43.674;6.976;2023-12-04T08:45:41;96964.63;;;7.39;59.05
83095;BME280;72967;43.674;6.976;2023-12-04T08:48:07;96983.91;;;7.25;60.42
83095;BME280;72967;43.674;6.976;2023-12-04T08:50:32;96982.94;;;7.21;61.01
83095;BME280;72967;43.674;6.976;2023-12-04T08:52:58;96988.25;;;7.18;62.77
83095;BME280;72967;43.674;6.976;2023-12-04T08:55:23;96975.66;;;7.00;62.76
83095;BME280;72967;43.674;6.976;2023-12-04T08:57:49;97009.31;;;7.17;62.20
83095;BME280;72967;43.674;6.976;2023-12-04T09:00:14;96990.28;;;6.95;65.17
83095;BME280;72967;43.674;6.976;2023-12-04T09:02:40;96986.72;;;6.86;64.92
83095;BME280;72967;43.674;6.976;2023-12-04T09:05:05;97003.78;;;6.92;64.92
83095;BME280;72967;43.674;6.976;2023-12-04T09:07:31;97003.56;;;6.79;66.61
83095;BME280;72967;43.674;6.976;2023-12-04T09:09:56;96994.00;;;6.60;68.02
83095;BME280;72967;43.674;6.976;2023-12-04T09:12:22;97010.22;;;6.56;68.67
83095;BME280;72967;43.674;6.976;2023-12-04T09:14:47;97004.59;;;6.53;68.22
83095;BME280;72967;43.674;6.976;2023-12-04T09:17:13;97010.53;;;6.55;70.58
83095;BME280;72967;43.674;6.976;2023-12-04T09:19:38;96987.81;;;6.37;70.10
83095;BME280;72967;43.674;6.976;2023-12-04T09:22:04;97005.50;;;6.48;70.50
83095;BME280;72967;43.674;6.976;2023-12-04T09:24:30;96986.38;;;6.39;69.84
83095;BME280;72967;43.674;6.976;2023-12-04T09:26:56;96955.28;;;6.18;71.68
83095;BME280;72967;43.674;6.976;2023-12-04T09:29:21;96972.22;;;6.37;70.78
83095;BME280;72967;43.674;6.976;2023-12-04T09:31:52;96982.13;;;6.25;73.05
83095;BME280;72967;43.674;6.976;2023-12-04T09:34:18;96961.16;;;6.12;73.03
83095;BME280;72967;43.674;6.976;2023-12-04T09:36:45;96955.94;;;5.93;74.73
83095;BME280;72967;43.674;6.976;2023-12-04T09:39:11;96951.50;;;5.83;75.78
83095;BME280;72967;43.674;6.976;2023-12-04T09:41:37;96928.28;;;5.64;73.78
83095;BME280;72967;43.674;6.976;2023-12-04T09:44:03;96954.19;;;5.97;76.28
83095;BME280;72967;43.674;6.976;2023-12-04T09:46:29;96960.59;;;5.92;76.69
83095;BME280;72967;43.674;6.976;2023-12-04T09:48:56;96958.03;;;5.74;76.13
83095;BME280;72967;43.674;6.976;2023-12-04T09:51:22;96957.34;;;5.68;76.83
83095;BME280;72967;43.674;6.976;2023-12-04T09:53:49;96919.41;;;5.58;78.30
83095;BME280;72967;43.674;6.976;2023-12-04T09:56:15;96951.47;;;5.75;78.26
83095;BME280;72967;43.674;6.976;2023-12-04T09:58:41;96947.25;;;5.69;78.75
83095;BME280;72967;43.674;6.976;2023-12-04T10:01:08;96952.19;;;5.67;78.13
83095;BME280;72967;43.674;6.976;2023-12-04T10:03:35;96953.50;;;5.69;77.16
83095;BME280;72967;43.674;6.976;2023-12-04T10:06:01;96942.53;;;5.61;77.68
83095;BME280;72967;43.674;6.976;2023-12-04T10:08:26;96932.28;;;5.66;78.93
83095;BME280;72967;43.674;6.976;2023-12-04T10:10:52;96914.91;;;5.53;76.88
83095;BME280;72967;43.674;6.976;2023-12-04T10:13:17;96920.53;;;5.57;78.94
83095;BME280;72967;43.674;6.976;2023-12-04T10:15:47;96925.34;;;5.60;78.03
83095;BME280;72967;43.674;6.976;2023-12-04T10:18:30;96934.03;;;5.62;79.69
83095;BME280;72967;43.674;6.976;2023-12-04T10:20:58;96920.66;;;5.74;78.90
83095;BME280;72967;43.674;6.976;2023-12-04T10:23:43;96924.50;;;5.73;77.44
83095;BME280;72967;43.674;6.976;2023-12-04T10:26:08;96905.78;;;5.58;78.07
83095;BME280;72967;43.674;6.976;2023-12-04T10:28:37;96921.09;;;5.68;77.85
83095;BME280;72967;43.674;6.976;2023-12-04T10:31:02;96911.59;;;5.65;77.08
83095;BME280;72967;43.674;6.976;2023-12-04T10:33:32;96922.00;;;5.85;78.65
83095;BME280;72967;43.674;6.976;2023-12-04T10:35:57;96914.25;;;5.79;78.03
83095;BME280;72967;43.674;6.976;2023-12-04T10:38:23;96894.88;;;5.58;79.09
83095;BME280;72967;43.674;6.976;2023-12-04T10:40:48;96909.44;;;5.53;78.98
83095;BME280;72967;43.674;6.976;2023-12-04T10:43:15;96899.78;;;5.70;79.19
83095;BME280;72967;43.674;6.976;2023-12-04T10:45:41;96891.94;;;5.54;78.83
83095;BME280;72967;43.674;6.976;2023-12-04T10:48:08;96886.03;;;5.52;80.03
83095;BME280;72967;43.674;6.976;2023-12-04T10:50:35;96887.31;;;5.55;78.88
83095;BME280;72967;43.674;6.976;2023-12-04T10:53:03;96885.38;;;5.55;79.40
83095;BME280;72967;43.674;6.976;2023-12-04T10:55:32;96839.16;;;5.50;80.55
83095;BME280;72967;43.674;6.976;2023-12-04T10:58:02;96861.97;;;5.54;79.21
83095;BME280;72967;43.674;6.976;2023-12-04T11:00:32;96851.13;;;5.63;80.37
83095;BME280;72967;43.674;6.976;2023-12-04T11:03:03;96850.34;;;5.40;78.97
83095;BME280;72967;43.674;6.976;2023-12-04T11:05:32;96821.59;;;5.34;80.27
83095;BME280;72967;43.674;6.976;2023-12-04T11:08:00;96797.53;;;5.05;81.01
83095;BME280;72967;43.674;6.976;2023-12-04T11:10:29;96813.63;;;5.38;80.03
83095;BME280;72967;43.674;6.976;2023-12-04T11:13:06;96784.63;;;5.20;80.59
83095;BME280;72967;43.674;6.976;2023-12-04T11:15:35;96805.09;;;5.39;80.46
83095;BME280;72967;43.674;6.976;2023-12-04T11:18:04;96792.25;;;5.31;80.29
83095;BME280;72967;43.674;6.976;2023-12-04T11:20:35;96804.00;;;5.40;78.88
83095;BME280;72967;43.674;6.976;2023-12-04T11:23:03;96812.38;;;5.22;80.08
83095;BME280;72967;43.674;6.976;2023-12-04T11:25:29;96795.81;;;5.40;79.23
83095;BME280;72967;43.674;6.976;2023-12-04T11:28:00;96778.38;;;5.19;79.33
83095;BME280;72967;43.674;6.976;2023-12-04T11:30:27;96790.47;;;5.27;79.59
83095;BME280;72967;43.674;6.976;2023-12-04T11:32:54;96777.00;;;5.30;79.70
83095;BME280;72967;43.674;6.976;2023-12-04T11:35:25;96755.22;;;5.08;78.04
83095;BME280;72967;43.674;6.976;2023-12-04T11:37:52;96791.41;;;5.22;78.86
83095;BME280;72967;43.674;6.976;2023-12-04T11:40:18;96788.44;;;5.41;78.03
83095;BME280;72967;43.674;6.976;2023-12-04T11:42:43;96775.38;;;5.29;77.41
83095;BME280;72967;43.674;6.976;2023-12-04T11:45:09;96773.59;;;5.55;76.54
83095;BME280;72967;43.674;6.976;2023-12-04T11:47:57;96751.78;;;5.55;76.89
83095;BME280;72967;43.674;6.976;2023-12-04T11:50:26;96756.41;;;5.46;76.45
83095;BME280;72967;43.674;6.976;2023-12-04T11:52:52;96758.47;;;5.41;76.09
83095;BME280;72967;43.674;6.976;2023-12-04T11:55:22;96750.59;;;5.39;77.07
83095;BME280;72967;43.674;6.976;2023-12-04T11:57:50;96750.84;;;5.60;77.17
83095;BME280;72967;43.674;6.976;2023-12-04T12:05:20;96737.41;;;5.72;74.82
83095;BME280;72967;43.674;6.976;2023-12-04T12:07:46;96710.59;;;5.66;75.10
83095;BME280;72967;43.674;6.976;2023-12-04T12:10:12;96724.75;;;5.76;74.35
83095;BME280;72967;43.674;6.976;2023-12-04T12:12:42;96714.50;;;5.82;74.28
83095;BME280;72967;43.674;6.976;2023-12-04T12:15:09;96699.75;;;5.74;74.39
83095;BME280;72967;43.674;6.976;2023-12-04T12:17:35;96705.66;;;5.76;75.77
83095;BME280;72967;43.674;6.976;2023-12-04T12:20:00;96674.69;;;5.81;73.59
83095;BME280;72967;43.674;6.976;2023-12-04T12:22:26;96677.66;;;6.02;72.97
83095;BME280;72967;43.674;6.976;2023-12-04T12:24:51;96670.59;;;5.92;74.61
83095;BME280;72967;43.674;6.976;2023-12-04T12:27:17;96692.75;;;6.08;73.66
83095;BME280;72967;43.674;6.976;2023-12-04T12:29:42;96704.47;;;6.17;73.24
83095;BME280;72967;43.674;6.976;2023-12-04T12:32:08;96660.66;;;6.13;73.51
83095;BME280;72967;43.674;6.976;2023-12-04T12:34:33;96674.47;;;6.34;71.10
83095;BME280;72967;43.674;6.976;2023-12-04T12:37:02;96673.19;;;6.23;73.00
83095;BME280;72967;43.674;6.976;2023-12-04T12:39:29;96652.34;;;6.27;71.88
83095;BME280;72967;43.674;6.976;2023-12-04T12:41:55;96666.59;;;6.50;71.89
83095;BME280;72967;43.674;6.976;2023-12-04T12:44:20;96635.78;;;6.23;72.70
83095;BME280;72967;43.674;6.976;2023-12-04T12:46:50;96653.47;;;6.26;74.19
83095;BME280;72967;43.674;6.976;2023-12-04T12:49:19;96630.16;;;6.37;72.04
83095;BME280;72967;43.674;6.976;2023-12-04T12:51:46;96620.03;;;6.37;74.23
83095;BME280;72967;43.674;6.976;2023-12-04T12:54:11;96622.31;;;6.27;74.20
83095;BME280;72967;43.674;6.976;2023-12-04T12:56:37;96625.03;;;6.35;75.51
83095;BME280;72967;43.674;6.976;2023-12-04T12:59:02;96627.72;;;6.44;74.05
83095;BME280;72967;43.674;6.976;2023-12-04T13:01:31;96623.56;;;6.47;74.10
83095;BME280;72967;43.674;6.976;2023-12-04T13:03:57;96601.13;;;6.15;75.71
83095;BME280;72967;43.674;6.976;2023-12-04T13:06:22;96606.06;;;6.22;76.38
83095;BME280;72967;43.674;6.976;2023-12-04T13:08:48;96608.34;;;6.20;75.26